sensor_id;sensor_type;location;lat;lon;timestamp;temperature;humidity
17296;DHT22;8766;51.480;6.872;2022-08-21T00:01:52;21.40;55.00
17296;DHT22;8766;51.480;6.872;2022-08-21T00:04:20;21.40;55.00
17296;DHT22;8766;51.480;6.872;2022-08-21T00:06:47;21.40;55.00
17296;DHT22;8766;51.480;6.872;2022-08-21T00:09:14;21.40;55.00
17296;DHT22;8766;51.480;6.872;2022-08-21T00:11:43;21.40;55.10
17296;DHT22;8766;51.480;6.872;2022-08-21T00:14:12;21.40;55.10
17296;DHT22;8766;51.480;6.872;2022-08-21T00:16:39;21.30;55.10
17296;DHT22;8766;51.480;6.872;2022-08-21T00:19:07;21.30;55.10
17296;DHT22;8766;51.480;6.872;2022-08-21T00:21:35;21.30;55.20
17296;DHT22;8766;51.480;6.872;2022-08-21T00:24:03;21.30;55.20
17296;DHT22;8766;51.480;6.872;2022-08-21T00:26:30;21.20;55.30
17296;DHT22;8766;51.480;6.872;2022-08-21T00:28:58;21.20;55.30
17296;DHT22;8766;51.480;6.872;2022-08-21T00:31:25;21.20;55.40
17296;DHT22;8766;51.480;6.872;2022-08-21T00:33:52;21.10;55.40
17296;DHT22;8766;51.480;6.872;2022-08-21T00:36:19;21.10;55.40
17296;DHT22;8766;51.480;6.872;2022-08-21T00:38:46;21.10;55.40
17296;DHT22;8766;51.480;6.872;2022-08-21T00:41:13;21.10;55.50
17296;DHT22;8766;51.480;6.872;2022-08-21T00:43:40;21.10;55.50
17296;DHT22;8766;51.480;6.872;2022-08-21T00:46:09;21.00;55.60
17296;DHT22;8766;51.480;6.872;2022-08-21T00:48:36;21.00;55.70
17296;DHT22;8766;51.480;6.872;2022-08-21T00:51:07;20.90;55.80
17296;DHT22;8766;51.480;6.872;2022-08-21T00:53:36;20.90;56.00
17296;DHT22;8766;51.480;6.872;2022-08-21T00:56:05;20.80;56.10
17296;DHT22;8766;51.480;6.872;2022-08-21T00:58:34;20.70;56.20
17296;DHT22;8766;51.480;6.872;2022-08-21T01:01:04;20.60;56.30
17296;DHT22;8766;51.480;6.872;2022-08-21T01:03:33;20.60;56.40
17296;DHT22;8766;51.480;6.872;2022-08-21T01:06:02;20.50;56.50
17296;DHT22;8766;51.480;6.872;2022-08-21T01:08:30;20.50;56.60
17296;DHT22;8766;51.480;6.872;2022-08-21T01:10:58;20.40;56.60
17296;DHT22;8766;51.480;6.872;2022-08-21T01:13:27;20.40;56.70
17296;DHT22;8766;51.480;6.872;2022-08-21T01:15:58;20.30;56.70
17296;DHT22;8766;51.480;6.872;2022-08-21T01:18:27;20.30;56.80
17296;DHT22;8766;51.480;6.872;2022-08-21T01:21:07;20.30;56.90
17296;DHT22;8766;51.480;6.872;2022-08-21T01:23:34;20.30;56.90
17296;DHT22;8766;51.480;6.872;2022-08-21T01:26:02;20.20;56.90
17296;DHT22;8766;51.480;6.872;2022-08-21T01:28:33;20.20;57.00
17296;DHT22;8766;51.480;6.872;2022-08-21T01:31:01;20.10;57.00
17296;DHT22;8766;51.480;6.872;2022-08-21T01:33:29;20.10;57.10
17296;DHT22;8766;51.480;6.872;2022-08-21T01:35:56;20.10;57.10
17296;DHT22;8766;51.480;6.872;2022-08-21T01:38:26;20.10;57.10
17296;DHT22;8766;51.480;6.872;2022-08-21T01:40:53;20.00;57.10
17296;DHT22;8766;51.480;6.872;2022-08-21T01:43:20;20.00;57.20
17296;DHT22;8766;51.480;6.872;2022-08-21T01:45:49;20.00;57.20
17296;DHT22;8766;51.480;6.872;2022-08-21T01:48:16;19.90;57.20
17296;DHT22;8766;51.480;6.872;2022-08-21T01:50:43;19.90;57.30
17296;DHT22;8766;51.480;6.872;2022-08-21T01:53:10;19.90;57.30
17296;DHT22;8766;51.480;6.872;2022-08-21T01:55:38;19.90;57.30
17296;DHT22;8766;51.480;6.872;2022-08-21T01:58:05;19.80;57.40
17296;DHT22;8766;51.480;6.872;2022-08-21T02:00:32;19.80;57.40
17296;DHT22;8766;51.480;6.872;2022-08-21T02:02:59;19.80;57.50
17296;DHT22;8766;51.480;6.872;2022-08-21T02:05:27;19.70;57.50
17296;DHT22;8766;51.480;6.872;2022-08-21T02:07:54;19.70;57.50
17296;DHT22;8766;51.480;6.872;2022-08-21T02:10:24;19.70;58.10
17296;DHT22;8766;51.480;6.872;2022-08-21T02:12:54;19.70;57.60
17296;DHT22;8766;51.480;6.872;2022-08-21T02:15:21;19.60;57.70
17296;DHT22;8766;51.480;6.872;2022-08-21T02:17:51;19.60;57.70
17296;DHT22;8766;51.480;6.872;2022-08-21T02:20:20;19.60;57.70
17296;DHT22;8766;51.480;6.872;2022-08-21T02:22:47;19.60;57.80
17296;DHT22;8766;51.480;6.872;2022-08-21T02:25:15;19.50;57.80
17296;DHT22;8766;51.480;6.872;2022-08-21T02:27:44;19.50;57.80
17296;DHT22;8766;51.480;6.872;2022-08-21T02:30:16;19.50;57.80
17296;DHT22;8766;51.480;6.872;2022-08-21T02:32:43;19.50;57.80
17296;DHT22;8766;51.480;6.872;2022-08-21T02:35:11;19.50;57.80
17296;DHT22;8766;51.480;6.872;2022-08-21T02:37:47;19.50;57.70
17296;DHT22;8766;51.480;6.872;2022-08-21T02:40:17;19.50;57.70
17296;DHT22;8766;51.480;6.872;2022-08-21T02:42:44;19.50;57.70
17296;DHT22;8766;51.480;6.872;2022-08-21T02:45:12;19.50;57.70
17296;DHT22;8766;51.480;6.872;2022-08-21T02:47:47;19.50;57.80
17296;DHT22;8766;51.480;6.872;2022-08-21T02:50:20;19.50;57.80
17296;DHT22;8766;51.480;6.872;2022-08-21T02:52:47;19.40;57.80
17296;DHT22;8766;51.480;6.872;2022-08-21T02:55:15;19.40;57.80
17296;DHT22;8766;51.480;6.872;2022-08-21T02:57:42;19.40;57.90
17296;DHT22;8766;51.480;6.872;2022-08-21T03:00:10;19.40;57.90
17296;DHT22;8766;51.480;6.872;2022-08-21T03:02:37;19.40;57.90
17296;DHT22;8766;51.480;6.872;2022-08-21T03:05:08;19.40;57.90
17296;DHT22;8766;51.480;6.872;2022-08-21T03:07:36;19.30;57.80
17296;DHT22;8766;51.480;6.872;2022-08-21T03:10:03;19.30;57.90
17296;DHT22;8766;51.480;6.872;2022-08-21T03:12:30;19.30;57.90
17296;DHT22;8766;51.480;6.872;2022-08-21T03:14:57;19.30;57.90
17296;DHT22;8766;51.480;6.872;2022-08-21T03:17:24;19.30;57.90
17296;DHT22;8766;51.480;6.872;2022-08-21T03:19:53;19.30;58.10
17296;DHT22;8766;51.480;6.872;2022-08-21T03:22:21;19.30;57.90
17296;DHT22;8766;51.480;6.872;2022-08-21T03:24:48;19.30;58.00
17296;DHT22;8766;51.480;6.872;2022-08-21T03:27:15;19.20;57.90
17296;DHT22;8766;51.480;6.872;2022-08-21T03:29:42;19.20;57.90
17296;DHT22;8766;51.480;6.872;2022-08-21T03:32:09;19.20;57.90
17296;DHT22;8766;51.480;6.872;2022-08-21T03:34:37;19.20;58.00
17296;DHT22;8766;51.480;6.872;2022-08-21T03:37:05;19.20;58.00
17296;DHT22;8766;51.480;6.872;2022-08-21T03:39:34;19.20;58.00
17296;DHT22;8766;51.480;6.872;2022-08-21T03:42:01;19.20;57.90
17296;DHT22;8766;51.480;6.872;2022-08-21T03:44:28;19.20;57.90
17296;DHT22;8766;51.480;6.872;2022-08-21T03:46:56;19.20;57.90
17296;DHT22;8766;51.480;6.872;2022-08-21T03:49:24;19.20;57.90
17296;DHT22;8766;51.480;6.872;2022-08-21T03:51:51;19.20;58.00
17296;DHT22;8766;51.480;6.872;2022-08-21T03:54:18;19.20;58.10
17296;DHT22;8766;51.480;6.872;2022-08-21T03:56:47;19.10;58.20
17296;DHT22;8766;51.480;6.872;2022-08-21T03:59:15;19.00;58.20
17296;DHT22;8766;51.480;6.872;2022-08-21T04:01:51;19.00;58.30
17296;DHT22;8766;51.480;6.872;2022-08-21T04:04:18;19.00;58.40
17296;DHT22;8766;51.480;6.872;2022-08-21T04:06:46;18.90;58.40
17296;DHT22;8766;51.480;6.872;2022-08-21T04:09:13;18.90;58.50
17296;DHT22;8766;51.480;6.872;2022-08-21T04:11:40;18.90;58.50
17296;DHT22;8766;51.480;6.872;2022-08-21T04:14:08;18.90;58.50
17296;DHT22;8766;51.480;6.872;2022-08-21T04:16:35;18.90;58.60
17296;DHT22;8766;51.480;6.872;2022-08-21T04:19:02;18.90;58.60
17296;DHT22;8766;51.480;6.872;2022-08-21T04:21:30;18.80;58.50
17296;DHT22;8766;51.480;6.872;2022-08-21T04:23:57;18.80;58.50
17296;DHT22;8766;51.480;6.872;2022-08-21T04:26:24;18.80;58.50
17296;DHT22;8766;51.480;6.872;2022-08-21T04:28:52;18.80;58.50
17296;DHT22;8766;51.480;6.872;2022-08-21T04:31:22;18.90;58.50
17296;DHT22;8766;51.480;6.872;2022-08-21T04:33:50;18.90;58.50
17296;DHT22;8766;51.480;6.872;2022-08-21T04:36:17;18.80;58.40
17296;DHT22;8766;51.480;6.872;2022-08-21T04:38:44;18.80;58.40
17296;DHT22;8766;51.480;6.872;2022-08-21T04:41:11;18.80;58.40
17296;DHT22;8766;51.480;6.872;2022-08-21T04:43:39;18.90;58.40
17296;DHT22;8766;51.480;6.872;2022-08-21T04:46:06;18.90;58.30
17296;DHT22;8766;51.480;6.872;2022-08-21T04:48:35;18.90;58.20
17296;DHT22;8766;51.480;6.872;2022-08-21T04:51:06;18.90;58.20
17296;DHT22;8766;51.480;6.872;2022-08-21T04:53:39;19.00;58.20
17296;DHT22;8766;51.480;6.872;2022-08-21T04:56:08;19.00;58.10
17296;DHT22;8766;51.480;6.872;2022-08-21T04:58:37;19.00;58.10
17296;DHT22;8766;51.480;6.872;2022-08-21T05:01:08;19.00;58.00
17296;DHT22;8766;51.480;6.872;2022-08-21T05:03:37;19.00;58.00
17296;DHT22;8766;51.480;6.872;2022-08-21T05:06:07;19.10;58.00
17296;DHT22;8766;51.480;6.872;2022-08-21T05:08:35;19.10;57.90
17296;DHT22;8766;51.480;6.872;2022-08-21T05:11:03;19.10;57.80
17296;DHT22;8766;51.480;6.872;2022-08-21T05:13:31;19.20;57.80
17296;DHT22;8766;51.480;6.872;2022-08-21T05:15:58;19.20;57.70
17296;DHT22;8766;51.480;6.872;2022-08-21T05:18:25;19.30;57.60
17296;DHT22;8766;51.480;6.872;2022-08-21T05:20:53;19.30;57.50
17296;DHT22;8766;51.480;6.872;2022-08-21T05:23:20;19.40;57.40
17296;DHT22;8766;51.480;6.872;2022-08-21T05:25:47;19.40;57.30
17296;DHT22;8766;51.480;6.872;2022-08-21T05:28:14;19.50;57.20
17296;DHT22;8766;51.480;6.872;2022-08-21T05:30:41;19.50;57.10
17296;DHT22;8766;51.480;6.872;2022-08-21T05:33:08;19.60;57.10
17296;DHT22;8766;51.480;6.872;2022-08-21T05:35:37;19.60;56.90
17296;DHT22;8766;51.480;6.872;2022-08-21T05:38:06;19.70;56.80
17296;DHT22;8766;51.480;6.872;2022-08-21T05:40:33;19.80;56.70
17296;DHT22;8766;51.480;6.872;2022-08-21T05:43:00;19.80;56.50
17296;DHT22;8766;51.480;6.872;2022-08-21T05:45:28;20.00;56.40
17296;DHT22;8766;51.480;6.872;2022-08-21T05:47:56;20.00;56.20
17296;DHT22;8766;51.480;6.872;2022-08-21T05:50:23;20.10;56.10
17296;DHT22;8766;51.480;6.872;2022-08-21T05:52:51;20.30;56.10
17296;DHT22;8766;51.480;6.872;2022-08-21T05:55:19;20.70;55.80
17296;DHT22;8766;51.480;6.872;2022-08-21T05:57:46;21.90;53.60
17296;DHT22;8766;51.480;6.872;2022-08-21T06:00:14;23.50;50.60
17296;DHT22;8766;51.480;6.872;2022-08-21T06:02:42;25.10;48.00
17296;DHT22;8766;51.480;6.872;2022-08-21T06:05:09;26.40;46.00
17296;DHT22;8766;51.480;6.872;2022-08-21T06:07:36;27.50;44.40
17296;DHT22;8766;51.480;6.872;2022-08-21T06:10:04;28.40;43.30
17296;DHT22;8766;51.480;6.872;2022-08-21T06:12:32;29.20;42.40
17296;DHT22;8766;51.480;6.872;2022-08-21T06:14:59;29.90;41.70
17296;DHT22;8766;51.480;6.872;2022-08-21T06:17:26;30.50;41.10
17296;DHT22;8766;51.480;6.872;2022-08-21T06:19:54;31.00;40.60
17296;DHT22;8766;51.480;6.872;2022-08-21T06:22:21;31.60;40.10
17296;DHT22;8766;51.480;6.872;2022-08-21T06:24:48;32.10;39.70
17296;DHT22;8766;51.480;6.872;2022-08-21T06:27:15;32.50;39.30
17296;DHT22;8766;51.480;6.872;2022-08-21T06:29:44;32.90;38.90
17296;DHT22;8766;51.480;6.872;2022-08-21T06:32:12;33.40;38.60
17296;DHT22;8766;51.480;6.872;2022-08-21T06:34:40;33.70;38.40
17296;DHT22;8766;51.480;6.872;2022-08-21T06:37:08;34.00;38.20
17296;DHT22;8766;51.480;6.872;2022-08-21T06:39:35;34.40;37.90
17296;DHT22;8766;51.480;6.872;2022-08-21T06:42:02;34.70;37.70
17296;DHT22;8766;51.480;6.872;2022-08-21T06:44:29;35.00;37.60
17296;DHT22;8766;51.480;6.872;2022-08-21T06:46:58;35.30;37.40
17296;DHT22;8766;51.480;6.872;2022-08-21T06:49:25;35.70;37.20
17296;DHT22;8766;51.480;6.872;2022-08-21T06:51:52;36.00;37.10
17296;DHT22;8766;51.480;6.872;2022-08-21T06:54:19;36.30;36.80
17296;DHT22;8766;51.480;6.872;2022-08-21T06:56:46;36.60;36.60
17296;DHT22;8766;51.480;6.872;2022-08-21T06:59:13;36.80;36.50
17296;DHT22;8766;51.480;6.872;2022-08-21T07:01:40;37.00;36.30
17296;DHT22;8766;51.480;6.872;2022-08-21T07:04:09;37.20;36.30
17296;DHT22;8766;51.480;6.872;2022-08-21T07:06:36;37.40;36.10
17296;DHT22;8766;51.480;6.872;2022-08-21T07:09:03;37.70;36.00
17296;DHT22;8766;51.480;6.872;2022-08-21T07:11:30;38.00;35.90
17296;DHT22;8766;51.480;6.872;2022-08-21T07:13:57;38.30;35.80
17296;DHT22;8766;51.480;6.872;2022-08-21T07:16:24;38.50;35.50
17296;DHT22;8766;51.480;6.872;2022-08-21T07:18:51;38.70;35.50
17296;DHT22;8766;51.480;6.872;2022-08-21T07:21:20;39.00;35.40
17296;DHT22;8766;51.480;6.872;2022-08-21T07:23:49;39.20;35.20
17296;DHT22;8766;51.480;6.872;2022-08-21T07:26:19;39.40;35.10
17296;DHT22;8766;51.480;6.872;2022-08-21T07:28:47;39.70;35.00
17296;DHT22;8766;51.480;6.872;2022-08-21T07:31:17;39.90;34.90
17296;DHT22;8766;51.480;6.872;2022-08-21T07:33:45;40.20;34.80
17296;DHT22;8766;51.480;6.872;2022-08-21T07:36:12;40.40;34.60
17296;DHT22;8766;51.480;6.872;2022-08-21T07:38:41;40.50;34.50
17296;DHT22;8766;51.480;6.872;2022-08-21T07:41:13;40.60;34.50
17296;DHT22;8766;51.480;6.872;2022-08-21T07:43:41;40.80;34.60
17296;DHT22;8766;51.480;6.872;2022-08-21T07:46:08;40.70;34.70
17296;DHT22;8766;51.480;6.872;2022-08-21T07:48:36;40.30;35.20
17296;DHT22;8766;51.480;6.872;2022-08-21T07:51:15;39.20;36.40
17296;DHT22;8766;51.480;6.872;2022-08-21T07:53:47;38.00;37.90
17296;DHT22;8766;51.480;6.872;2022-08-21T07:56:14;36.60;39.60
17296;DHT22;8766;51.480;6.872;2022-08-21T07:58:41;35.30;41.20
17296;DHT22;8766;51.480;6.872;2022-08-21T08:01:08;34.60;42.20
17296;DHT22;8766;51.480;6.872;2022-08-21T08:03:36;34.30;42.60
17296;DHT22;8766;51.480;6.872;2022-08-21T08:06:03;34.00;42.80
17296;DHT22;8766;51.480;6.872;2022-08-21T08:08:31;33.60;43.20
17296;DHT22;8766;51.480;6.872;2022-08-21T08:11:00;33.20;43.70
17296;DHT22;8766;51.480;6.872;2022-08-21T08:13:27;33.10;43.70
17296;DHT22;8766;51.480;6.872;2022-08-21T08:15:54;33.60;42.80
17296;DHT22;8766;51.480;6.872;2022-08-21T08:18:21;34.70;41.20
17296;DHT22;8766;51.480;6.872;2022-08-21T08:20:48;35.90;39.60
17296;DHT22;8766;51.480;6.872;2022-08-21T08:23:15;36.70;38.40
17296;DHT22;8766;51.480;6.872;2022-08-21T08:25:42;36.50;38.70
17296;DHT22;8766;51.480;6.872;2022-08-21T08:28:11;35.60;39.70
17296;DHT22;8766;51.480;6.872;2022-08-21T08:30:38;35.50;39.90
17296;DHT22;8766;51.480;6.872;2022-08-21T08:33:05;36.20;39.20
17296;DHT22;8766;51.480;6.872;2022-08-21T08:35:32;36.10;39.20
17296;DHT22;8766;51.480;6.872;2022-08-21T08:37:59;35.50;39.70
17296;DHT22;8766;51.480;6.872;2022-08-21T08:40:32;35.10;40.50
17296;DHT22;8766;51.480;6.872;2022-08-21T08:43:02;35.50;40.00
17296;DHT22;8766;51.480;6.872;2022-08-21T08:45:36;36.70;38.50
17296;DHT22;8766;51.480;6.872;2022-08-21T08:48:06;37.90;37.10
17296;DHT22;8766;51.480;6.872;2022-08-21T08:50:40;38.90;36.00
17296;DHT22;8766;51.480;6.872;2022-08-21T08:53:12;39.60;35.30
17296;DHT22;8766;51.480;6.872;2022-08-21T08:55:42;40.00;34.70
17296;DHT22;8766;51.480;6.872;2022-08-21T08:58:13;40.30;34.40
17296;DHT22;8766;51.480;6.872;2022-08-21T09:00:44;40.40;34.30
17296;DHT22;8766;51.480;6.872;2022-08-21T09:03:13;40.40;34.20
17296;DHT22;8766;51.480;6.872;2022-08-21T09:05:45;40.20;34.30
17296;DHT22;8766;51.480;6.872;2022-08-21T09:08:36;39.90;34.70
17296;DHT22;8766;51.480;6.872;2022-08-21T09:11:10;39.50;34.90
17296;DHT22;8766;51.480;6.872;2022-08-21T09:13:46;39.50;34.80
17296;DHT22;8766;51.480;6.872;2022-08-21T09:16:24;39.50;34.60
17296;DHT22;8766;51.480;6.872;2022-08-21T09:18:59;39.10;35.10
17296;DHT22;8766;51.480;6.872;2022-08-21T09:21:38;38.40;35.60
17296;DHT22;8766;51.480;6.872;2022-08-21T09:24:19;38.10;35.60
17296;DHT22;8766;51.480;6.872;2022-08-21T09:26:54;37.80;36.00
17296;DHT22;8766;51.480;6.872;2022-08-21T09:29:25;37.00;36.90
17296;DHT22;8766;51.480;6.872;2022-08-21T09:31:55;36.10;37.90
17296;DHT22;8766;51.480;6.872;2022-08-21T09:34:26;35.30;38.90
17296;DHT22;8766;51.480;6.872;2022-08-21T09:36:55;34.70;39.80
17296;DHT22;8766;51.480;6.872;2022-08-21T09:39:25;33.90;40.70
17296;DHT22;8766;51.480;6.872;2022-08-21T09:41:56;33.30;41.60
17296;DHT22;8766;51.480;6.872;2022-08-21T09:44:26;32.70;42.20
17296;DHT22;8766;51.480;6.872;2022-08-21T09:46:55;32.30;42.80
17296;DHT22;8766;51.480;6.872;2022-08-21T09:49:30;31.90;43.30
17296;DHT22;8766;51.480;6.872;2022-08-21T09:51:58;31.50;43.80
17296;DHT22;8766;51.480;6.872;2022-08-21T09:54:30;31.10;44.20
17296;DHT22;8766;51.480;6.872;2022-08-21T09:56:59;30.90;44.50
17296;DHT22;8766;51.480;6.872;2022-08-21T09:59:45;30.60;44.80
17296;DHT22;8766;51.480;6.872;2022-08-21T10:02:29;30.30;45.10
17296;DHT22;8766;51.480;6.872;2022-08-21T10:04:59;30.10;45.80
17296;DHT22;8766;51.480;6.872;2022-08-21T10:07:28;30.00;45.30
17296;DHT22;8766;51.480;6.872;2022-08-21T10:10:00;29.90;45.40
17296;DHT22;8766;51.480;6.872;2022-08-21T10:12:33;29.80;45.50
17296;DHT22;8766;51.480;6.872;2022-08-21T10:15:12;29.70;45.50
17296;DHT22;8766;51.480;6.872;2022-08-21T10:17:51;29.60;45.50
17296;DHT22;8766;51.480;6.872;2022-08-21T10:20:22;29.40;45.60
17296;DHT22;8766;51.480;6.872;2022-08-21T10:23:01;29.40;45.70
17296;DHT22;8766;51.480;6.872;2022-08-21T10:25:32;29.30;45.60
17296;DHT22;8766;51.480;6.872;2022-08-21T10:28:07;29.30;45.60
17296;DHT22;8766;51.480;6.872;2022-08-21T10:30:41;29.20;45.60
17296;DHT22;8766;51.480;6.872;2022-08-21T10:33:33;29.20;45.60
17296;DHT22;8766;51.480;6.872;2022-08-21T10:36:11;29.20;45.60
17296;DHT22;8766;51.480;6.872;2022-08-21T10:38:56;29.20;45.50
17296;DHT22;8766;51.480;6.872;2022-08-21T10:41:40;29.20;45.50
17296;DHT22;8766;51.480;6.872;2022-08-21T10:44:20;29.10;45.40
17296;DHT22;8766;51.480;6.872;2022-08-21T10:46:54;29.10;45.40
17296;DHT22;8766;51.480;6.872;2022-08-21T10:49:33;29.10;45.40
17296;DHT22;8766;51.480;6.872;2022-08-21T10:52:29;29.00;45.50
17296;DHT22;8766;51.480;6.872;2022-08-21T10:55:03;28.90;45.60
17296;DHT22;8766;51.480;6.872;2022-08-21T10:57:45;28.80;45.60
17296;DHT22;8766;51.480;6.872;2022-08-21T11:00:15;28.80;45.60
17296;DHT22;8766;51.480;6.872;2022-08-21T11:02:49;28.80;45.60
17296;DHT22;8766;51.480;6.872;2022-08-21T11:05:25;28.80;45.50
17296;DHT22;8766;51.480;6.872;2022-08-21T11:07:56;28.90;45.30
17296;DHT22;8766;51.480;6.872;2022-08-21T11:10:35;29.00;45.20
17296;DHT22;8766;51.480;6.872;2022-08-21T11:13:11;29.00;45.10
17296;DHT22;8766;51.480;6.872;2022-08-21T11:15:43;29.00;45.10
17296;DHT22;8766;51.480;6.872;2022-08-21T11:18:19;29.00;45.00
17296;DHT22;8766;51.480;6.872;2022-08-21T11:20:54;29.00;45.00
17296;DHT22;8766;51.480;6.872;2022-08-21T11:23:26;29.00;45.00
17296;DHT22;8766;51.480;6.872;2022-08-21T11:26:01;29.00;44.90
17296;DHT22;8766;51.480;6.872;2022-08-21T11:28:33;29.00;44.90
17296;DHT22;8766;51.480;6.872;2022-08-21T11:31:08;29.00;44.90
17296;DHT22;8766;51.480;6.872;2022-08-21T11:33:50;29.00;44.90
17296;DHT22;8766;51.480;6.872;2022-08-21T11:36:28;29.00;44.70
17296;DHT22;8766;51.480;6.872;2022-08-21T11:39:05;29.10;44.70
17296;DHT22;8766;51.480;6.872;2022-08-21T11:41:37;29.10;44.70
17296;DHT22;8766;51.480;6.872;2022-08-21T11:44:13;29.10;44.60
17296;DHT22;8766;51.480;6.872;2022-08-21T11:46:48;29.10;44.60
17296;DHT22;8766;51.480;6.872;2022-08-21T11:49:36;29.20;44.50
17296;DHT22;8766;51.480;6.872;2022-08-21T11:52:14;29.20;44.30
17296;DHT22;8766;51.480;6.872;2022-08-21T11:54:46;29.20;44.20
17296;DHT22;8766;51.480;6.872;2022-08-21T11:57:19;29.30;44.20
17296;DHT22;8766;51.480;6.872;2022-08-21T11:59:56;29.40;44.10
17296;DHT22;8766;51.480;6.872;2022-08-21T12:02:28;29.40;44.10
17296;DHT22;8766;51.480;6.872;2022-08-21T12:05:00;29.20;44.10
17296;DHT22;8766;51.480;6.872;2022-08-21T12:07:34;29.10;44.30
17296;DHT22;8766;51.480;6.872;2022-08-21T12:10:04;29.00;44.50
17296;DHT22;8766;51.480;6.872;2022-08-21T12:12:33;28.90;44.70
17296;DHT22;8766;51.480;6.872;2022-08-21T12:15:23;28.90;44.70
17296;DHT22;8766;51.480;6.872;2022-08-21T12:17:57;28.80;44.70
17296;DHT22;8766;51.480;6.872;2022-08-21T12:20:37;28.80;44.70
17296;DHT22;8766;51.480;6.872;2022-08-21T12:23:17;28.80;44.70
17296;DHT22;8766;51.480;6.872;2022-08-21T12:25:47;28.80;44.70
17296;DHT22;8766;51.480;6.872;2022-08-21T12:28:21;28.70;44.80
17296;DHT22;8766;51.480;6.872;2022-08-21T12:30:49;28.60;44.80
17296;DHT22;8766;51.480;6.872;2022-08-21T12:33:25;28.60;44.80
17296;DHT22;8766;51.480;6.872;2022-08-21T12:36:04;28.60;44.80
17296;DHT22;8766;51.480;6.872;2022-08-21T12:38:44;28.70;44.80
17296;DHT22;8766;51.480;6.872;2022-08-21T12:41:17;28.70;44.70
17296;DHT22;8766;51.480;6.872;2022-08-21T12:43:48;28.60;44.70
17296;DHT22;8766;51.480;6.872;2022-08-21T12:46:21;28.60;44.60
17296;DHT22;8766;51.480;6.872;2022-08-21T12:48:54;28.60;44.60
17296;DHT22;8766;51.480;6.872;2022-08-21T12:51:27;28.60;44.70
17296;DHT22;8766;51.480;6.872;2022-08-21T12:53:59;28.50;44.70
17296;DHT22;8766;51.480;6.872;2022-08-21T12:56:28;28.50;44.80
17296;DHT22;8766;51.480;6.872;2022-08-21T12:58:57;28.40;44.90
17296;DHT22;8766;51.480;6.872;2022-08-21T13:01:28;28.40;44.90
17296;DHT22;8766;51.480;6.872;2022-08-21T13:04:02;28.40;44.90
17296;DHT22;8766;51.480;6.872;2022-08-21T13:06:36;28.40;44.80
17296;DHT22;8766;51.480;6.872;2022-08-21T13:09:08;28.50;44.70
17296;DHT22;8766;51.480;6.872;2022-08-21T13:11:36;28.60;44.60
17296;DHT22;8766;51.480;6.872;2022-08-21T13:14:04;28.60;44.50
17296;DHT22;8766;51.480;6.872;2022-08-21T13:16:31;28.60;44.40
17296;DHT22;8766;51.480;6.872;2022-08-21T13:19:02;28.50;44.50
17296;DHT22;8766;51.480;6.872;2022-08-21T13:21:33;28.40;44.60
17296;DHT22;8766;51.480;6.872;2022-08-21T13:24:15;28.50;44.70
17296;DHT22;8766;51.480;6.872;2022-08-21T13:26:44;28.50;44.60
17296;DHT22;8766;51.480;6.872;2022-08-21T13:29:13;28.60;44.40
17296;DHT22;8766;51.480;6.872;2022-08-21T13:31:46;28.70;44.20
17296;DHT22;8766;51.480;6.872;2022-08-21T13:34:14;28.80;44.20
17296;DHT22;8766;51.480;6.872;2022-08-21T13:36:44;28.60;44.20
17296;DHT22;8766;51.480;6.872;2022-08-21T13:39:17;28.60;44.30
17296;DHT22;8766;51.480;6.872;2022-08-21T13:41:47;28.70;44.30
17296;DHT22;8766;51.480;6.872;2022-08-21T13:44:17;28.80;44.20
17296;DHT22;8766;51.480;6.872;2022-08-21T13:46:45;28.90;44.00
17296;DHT22;8766;51.480;6.872;2022-08-21T13:49:16;29.00;43.90
17296;DHT22;8766;51.480;6.872;2022-08-21T13:51:44;29.10;43.70
17296;DHT22;8766;51.480;6.872;2022-08-21T13:54:34;29.20;43.60
17296;DHT22;8766;51.480;6.872;2022-08-21T13:57:02;29.20;43.50
17296;DHT22;8766;51.480;6.872;2022-08-21T13:59:30;29.20;43.40
17296;DHT22;8766;51.480;6.872;2022-08-21T14:01:59;29.20;43.40
17296;DHT22;8766;51.480;6.872;2022-08-21T14:04:33;29.20;43.50
17296;DHT22;8766;51.480;6.872;2022-08-21T14:07:01;29.10;43.60
17296;DHT22;8766;51.480;6.872;2022-08-21T14:09:32;28.90;43.80
17296;DHT22;8766;51.480;6.872;2022-08-21T14:12:04;28.70;44.10
17296;DHT22;8766;51.480;6.872;2022-08-21T14:14:39;28.60;44.40
17296;DHT22;8766;51.480;6.872;2022-08-21T14:17:09;28.40;44.50
17296;DHT22;8766;51.480;6.872;2022-08-21T14:19:40;28.40;44.60
17296;DHT22;8766;51.480;6.872;2022-08-21T14:22:28;28.30;44.60
17296;DHT22;8766;51.480;6.872;2022-08-21T14:25:02;28.30;44.70
17296;DHT22;8766;51.480;6.872;2022-08-21T14:27:30;28.20;44.70
17296;DHT22;8766;51.480;6.872;2022-08-21T14:30:00;28.20;44.80
17296;DHT22;8766;51.480;6.872;2022-08-21T14:32:29;28.20;44.80
17296;DHT22;8766;51.480;6.872;2022-08-21T14:34:57;28.20;44.80
17296;DHT22;8766;51.480;6.872;2022-08-21T14:37:24;28.20;44.70
17296;DHT22;8766;51.480;6.872;2022-08-21T14:39:52;28.20;44.60
17296;DHT22;8766;51.480;6.872;2022-08-21T14:42:20;28.30;44.50
17296;DHT22;8766;51.480;6.872;2022-08-21T14:44:47;28.50;44.40
17296;DHT22;8766;51.480;6.872;2022-08-21T14:47:14;28.70;44.10
17296;DHT22;8766;51.480;6.872;2022-08-21T14:49:41;28.80;43.80
17296;DHT22;8766;51.480;6.872;2022-08-21T14:52:09;28.90;43.60
17296;DHT22;8766;51.480;6.872;2022-08-21T14:54:36;29.10;43.40
17296;DHT22;8766;51.480;6.872;2022-08-21T14:57:06;29.30;43.20
17296;DHT22;8766;51.480;6.872;2022-08-21T14:59:37;29.30;43.70
17296;DHT22;8766;51.480;6.872;2022-08-21T15:02:05;29.10;43.20
17296;DHT22;8766;51.480;6.872;2022-08-21T15:04:33;29.00;43.40
17296;DHT22;8766;51.480;6.872;2022-08-21T15:07:00;29.10;43.40
17296;DHT22;8766;51.480;6.872;2022-08-21T15:09:27;29.20;43.20
17296;DHT22;8766;51.480;6.872;2022-08-21T15:11:56;29.30;43.00
17296;DHT22;8766;51.480;6.872;2022-08-21T15:14:26;29.50;42.90
17296;DHT22;8766;51.480;6.872;2022-08-21T15:16:55;29.40;42.90
17296;DHT22;8766;51.480;6.872;2022-08-21T15:19:22;29.30;43.10
17296;DHT22;8766;51.480;6.872;2022-08-21T15:21:50;29.10;43.30
17296;DHT22;8766;51.480;6.872;2022-08-21T15:24:17;28.90;43.50
17296;DHT22;8766;51.480;6.872;2022-08-21T15:26:44;28.90;43.60
17296;DHT22;8766;51.480;6.872;2022-08-21T15:29:11;29.00;43.50
17296;DHT22;8766;51.480;6.872;2022-08-21T15:31:50;29.10;43.20
17296;DHT22;8766;51.480;6.872;2022-08-21T15:34:19;29.20;43.20
17296;DHT22;8766;51.480;6.872;2022-08-21T15:36:47;29.30;43.00
17296;DHT22;8766;51.480;6.872;2022-08-21T15:39:14;29.40;42.90
17296;DHT22;8766;51.480;6.872;2022-08-21T15:41:41;29.40;42.80
17296;DHT22;8766;51.480;6.872;2022-08-21T15:44:09;29.40;42.80
17296;DHT22;8766;51.480;6.872;2022-08-21T15:46:38;29.40;42.80
17296;DHT22;8766;51.480;6.872;2022-08-21T15:49:06;29.40;42.70
17296;DHT22;8766;51.480;6.872;2022-08-21T15:51:34;29.50;42.80
17296;DHT22;8766;51.480;6.872;2022-08-21T15:54:02;29.30;42.80
17296;DHT22;8766;51.480;6.872;2022-08-21T15:56:36;29.10;43.00
17296;DHT22;8766;51.480;6.872;2022-08-21T15:59:06;29.00;43.20
17296;DHT22;8766;51.480;6.872;2022-08-21T16:01:35;29.00;43.30
17296;DHT22;8766;51.480;6.872;2022-08-21T16:04:03;29.00;43.40